Time;durP1;ratioP1;P1;durP2;ratioP2;P2;SDS_P1;SDS_P2;PMS_P1;PMS_P2;Temp;Humidity;BMP_temperature;BMP_pressure;BME280_temperature;BME280_humidity;BME280_pressure;Samples;Min_cycle;Max_cycle;Signal;HPM_P1;HPM_P2
2022/07/25 00:00:29;;;;;;;;;;;15.30;99.90;;;;;;5127594;27;19922;-56
2022/07/25 00:03:09;;;;;;;;;;;15.20;99.90;;;;;;5126739;27;19920;-56
2022/07/25 00:05:49;;;;;;;;;;;15.20;99.90;;;;;;5127286;27;19912;-56
2022/07/25 00:08:29;;;;;;;;;;;15.20;99.90;;;;;;5106460;27;20263;-56
2022/07/25 00:11:08;;;;;;;;;;;15.20;99.90;;;;;;5129912;27;19912;-56
2022/07/25 00:13:48;;;;;;;;;;;15.10;99.90;;;;;;5126164;27;19918;-56
2022/07/25 00:16:28;;;;;;;;;;;15.00;99.90;;;;;;5122976;27;19918;-55
2022/07/25 00:19:08;;;;;;;;;;;14.90;99.90;;;;;;5126762;27;19920;-56
2022/07/25 00:21:48;;;;;;;;;;;14.90;99.90;;;;;;5127612;27;19930;-56
2022/07/25 00:24:28;;;;;;;;;;;14.90;99.90;;;;;;5106691;27;19926;-56
2022/07/25 00:27:07;;;;;;;;;;;14.90;99.90;;;;;;5126945;27;19938;-56
2022/07/25 00:29:47;;;;;;;;;;;14.80;99.90;;;;;;5106675;27;19927;-56
2022/07/25 00:32:27;;;;;;;;;;;14.80;99.90;;;;;;5126919;27;19911;-56
2022/07/25 00:35:07;;;;;;;;;;;14.80;99.90;;;;;;5127268;27;19918;-56
2022/07/25 00:37:47;;;;;;;;;;;14.80;99.90;;;;;;5111833;27;19916;-56
2022/07/25 00:40:27;;;;;;;;;;;14.70;99.90;;;;;;5126860;27;20300;-57
2022/07/25 00:43:06;;;;;;;;;;;14.70;99.90;;;;;;5127094;27;19922;-56
2022/07/25 00:45:46;;;;;;;;;;;14.70;99.90;;;;;;5126688;27;19911;-56
2022/07/25 00:48:28;;;;;;;;;;;14.70;99.90;;;;;;5106641;27;19918;-57
2022/07/25 00:51:10;;;;;;;;;;;14.60;99.90;;;;;;5126776;27;19934;-56
2022/07/25 00:53:51;;;;;;;;;;;14.70;99.90;;;;;;5126755;27;20389;-56
2022/07/25 00:56:31;;;;;;;;;;;14.70;99.90;;;;;;5122867;27;19918;-56
2022/07/25 00:59:12;;;;;;;;;;;14.60;99.90;;;;;;5125205;27;19926;-56
2022/07/25 01:01:52;;;;;;;;;;;14.50;99.90;;;;;;5125351;27;20282;-56
2022/07/25 01:04:32;;;;;;;;;;;14.40;99.90;;;;;;5127269;27;19911;-55
2022/07/25 01:07:13;;;;;;;;;;;14.40;99.90;;;;;;5116205;27;19916;-56
2022/07/25 01:09:55;;;;;;;;;;;14.40;99.90;;;;;;5106793;27;19919;-56
2022/07/25 01:12:45;;;;;;;;;;;14.40;99.90;;;;;;5127054;27;19918;-56
2022/07/25 01:15:25;;;;;;;;;;;14.40;99.90;;;;;;5127501;27;19916;-56
2022/07/25 01:18:05;;;;;;;;;;;14.40;99.90;;;;;;5089005;27;19912;-56
2022/07/25 01:20:45;;;;;;;;;;;14.30;99.90;;;;;;5106669;27;19954;-56
2022/07/25 01:23:25;;;;;;;;;;;14.30;99.90;;;;;;5126859;27;19918;-56
2022/07/25 01:26:05;;;;;;;;;;;14.30;99.90;;;;;;5120127;27;20642;-56
2022/07/25 01:28:44;;;;;;;;;;;14.30;99.90;;;;;;5126340;27;19911;-56
2022/07/25 01:31:24;;;;;;;;;;;14.30;99.90;;;;;;5127574;27;19912;-56
2022/07/25 01:34:04;;;;;;;;;;;14.30;99.90;;;;;;5127152;27;19915;-56
2022/07/25 01:36:44;;;;;;;;;;;14.20;99.90;;;;;;5100493;27;19946;-56
2022/07/25 01:39:24;;;;;;;;;;;14.10;99.90;;;;;;5100476;27;20889;-56
2022/07/25 01:42:04;;;;;;;;;;;14.10;99.90;;;;;;5119899;27;20312;-56
2022/07/25 01:44:43;;;;;;;;;;;14.00;99.90;;;;;;5126264;27;19912;-56
2022/07/25 01:47:23;;;;;;;;;;;14.00;99.90;;;;;;5084221;27;19923;-56
2022/07/25 01:50:03;;;;;;;;;;;13.90;99.90;;;;;;5125392;27;19925;-56
2022/07/25 01:52:43;;;;;;;;;;;13.90;99.90;;;;;;5126864;27;19918;-56
2022/07/25 01:55:23;;;;;;;;;;;13.90;99.90;;;;;;5127325;27;20324;-56
2022/07/25 01:58:02;;;;;;;;;;;13.90;99.90;;;;;;5108805;27;20365;-55
2022/07/25 02:00:42;;;;;;;;;;;13.90;99.90;;;;;;5127103;27;19918;-56
2022/07/25 02:03:31;;;;;;;;;;;13.90;99.90;;;;;;5127440;27;19916;-56
2022/07/25 02:06:12;;;;;;;;;;;13.80;99.90;;;;;;5124963;27;20399;-56
2022/07/25 02:08:51;;;;;;;;;;;13.80;99.90;;;;;;5106277;27;19926;-56
2022/07/25 02:11:31;;;;;;;;;;;13.80;99.90;;;;;;5127191;27;20362;-56
2022/07/25 02:14:11;;;;;;;;;;;13.80;99.90;;;;;;5127003;27;19912;-56
2022/07/25 02:16:51;;;;;;;;;;;13.90;99.90;;;;;;5119677;27;19922;-56
2022/07/25 02:19:31;;;;;;;;;;;13.90;99.90;;;;;;5127395;27;19912;-56
2022/07/25 02:22:10;;;;;;;;;;;13.80;99.90;;;;;;5126846;27;20306;-56
2022/07/25 02:24:50;;;;;;;;;;;13.70;99.90;;;;;;5126850;27;20386;-56
2022/07/25 02:27:30;;;;;;;;;;;13.60;99.90;;;;;;5125969;27;19918;-56
2022/07/25 02:30:11;;;;;;;;;;;13.50;99.90;;;;;;5127016;27;19912;-56
2022/07/25 02:32:52;;;;;;;;;;;13.40;99.90;;;;;;5126474;27;20274;-56
2022/07/25 02:35:31;;;;;;;;;;;13.40;99.90;;;;;;5126682;27;19912;-56
2022/07/25 02:38:18;;;;;;;;;;;13.30;99.90;;;;;;5106162;27;20122;-57
2022/07/25 02:40:57;;;;;;;;;;;13.30;99.90;;;;;;5106605;27;19926;-56
2022/07/25 02:43:37;;;;;;;;;;;13.20;99.90;;;;;;5106400;27;19912;-56
2022/07/25 02:46:17;;;;;;;;;;;13.20;99.90;;;;;;5126569;27;19912;-56
2022/07/25 02:48:57;;;;;;;;;;;13.20;99.90;;;;;;5127196;27;19912;-56
2022/07/25 02:51:38;;;;;;;;;;;13.20;99.90;;;;;;5127361;27;20381;-56
2022/07/25 02:54:18;;;;;;;;;;;13.20;99.90;;;;;;5127284;27;19912;-56
2022/07/25 02:56:59;;;;;;;;;;;13.20;99.90;;;;;;5105631;27;20328;-56
2022/07/25 02:59:39;;;;;;;;;;;13.20;99.90;;;;;;5106720;27;19926;-56
2022/07/25 03:02:19;;;;;;;;;;;13.20;99.90;;;;;;5106610;27;19926;-56
2022/07/25 03:04:59;;;;;;;;;;;13.10;99.90;;;;;;5126800;27;19912;-56
2022/07/25 03:07:39;;;;;;;;;;;13.10;99.90;;;;;;5113641;27;19918;-57
2022/07/25 03:10:19;;;;;;;;;;;13.00;99.90;;;;;;5127521;27;19916;-56
2022/07/25 03:12:58;;;;;;;;;;;13.00;99.90;;;;;;5106628;27;19912;-56
2022/07/25 03:15:38;;;;;;;;;;;13.10;99.90;;;;;;5127051;27;20384;-56
2022/07/25 03:18:18;;;;;;;;;;;13.00;99.90;;;;;;5127360;27;19918;-56
2022/07/25 03:20:58;;;;;;;;;;;13.00;99.90;;;;;;5127513;27;19918;-56
2022/07/25 03:23:39;;;;;;;;;;;13.00;99.90;;;;;;5126979;27;19922;-56
2022/07/25 03:26:19;;;;;;;;;;;13.00;99.90;;;;;;5078356;28;19917;-56
2022/07/25 03:28:59;;;;;;;;;;;13.00;99.90;;;;;;5125604;27;19912;-56
2022/07/25 03:31:39;;;;;;;;;;;13.00;99.90;;;;;;5125462;27;19919;-56
2022/07/25 03:34:19;;;;;;;;;;;13.00;99.90;;;;;;5124916;27;19912;-56
2022/07/25 03:36:59;;;;;;;;;;;13.10;99.90;;;;;;5118176;27;19916;-56
2022/07/25 03:39:38;;;;;;;;;;;13.00;99.90;;;;;;5125961;27;20270;-56
2022/07/25 03:42:19;;;;;;;;;;;13.00;99.90;;;;;;5121314;27;19916;-56
2022/07/25 03:45:00;;;;;;;;;;;13.00;99.90;;;;;;5126342;27;19912;-56
2022/07/25 03:47:39;;;;;;;;;;;13.00;99.90;;;;;;5112305;27;19916;-56
2022/07/25 03:50:19;;;;;;;;;;;13.00;99.90;;;;;;5119857;27;20301;-56
2022/07/25 03:52:59;;;;;;;;;;;13.10;99.90;;;;;;5103087;27;19927;-56
2022/07/25 03:55:39;;;;;;;;;;;13.10;99.90;;;;;;5107353;27;19916;-56
2022/07/25 03:58:19;;;;;;;;;;;13.10;99.90;;;;;;5119697;27;19924;-56
2022/07/25 04:01:00;;;;;;;;;;;13.20;99.90;;;;;;5124110;27;19915;-56
2022/07/25 04:03:40;;;;;;;;;;;13.40;99.90;;;;;;5125975;27;20377;-58
2022/07/25 04:06:20;;;;;;;;;;;13.50;99.90;;;;;;5125834;27;19911;-56
2022/07/25 04:09:00;;;;;;;;;;;13.60;99.90;;;;;;5125898;27;20449;-56
2022/07/25 04:11:39;;;;;;;;;;;13.70;99.90;;;;;;5104004;27;19916;-56
2022/07/25 04:14:19;;;;;;;;;;;13.80;99.90;;;;;;5126491;27;20296;-56
2022/07/25 04:16:59;;;;;;;;;;;13.90;99.90;;;;;;5118080;27;19918;-56
2022/07/25 04:19:39;;;;;;;;;;;14.00;99.90;;;;;;5126131;27;19926;-57
2022/07/25 04:22:19;;;;;;;;;;;14.10;99.90;;;;;;5106515;27;19919;-56
2022/07/25 04:24:59;;;;;;;;;;;14.30;99.90;;;;;;5104985;27;19920;-56
2022/07/25 04:27:38;;;;;;;;;;;14.40;99.90;;;;;;5094534;27;19916;-56
2022/07/25 04:30:32;;;;;;;;;;;14.70;99.90;;;;;;5124561;27;20178;-56
2022/07/25 04:33:14;;;;;;;;;;;14.90;99.90;;;;;;5102675;27;19934;-56
2022/07/25 04:35:54;;;;;;;;;;;15.10;99.90;;;;;;5125193;27;20188;-56
2022/07/25 04:38:34;;;;;;;;;;;15.30;99.90;;;;;;5105116;27;19912;-56
2022/07/25 04:41:13;;;;;;;;;;;15.40;99.90;;;;;;5105003;27;19930;-59
2022/07/25 04:43:54;;;;;;;;;;;15.50;99.90;;;;;;5104357;27;19918;-55
2022/07/25 04:46:35;;;;;;;;;;;15.60;99.90;;;;;;5126172;27;19912;-56
2022/07/25 04:49:15;;;;;;;;;;;15.80;99.90;;;;;;5147793;27;19933;-56
2022/07/25 04:51:54;;;;;;;;;;;16.00;99.90;;;;;;5127081;27;20366;-56
2022/07/25 04:54:34;;;;;;;;;;;16.50;99.90;;;;;;5127181;27;19918;-56
2022/07/25 04:57:14;;;;;;;;;;;17.70;99.90;;;;;;5147187;27;19915;-56
2022/07/25 04:59:55;;;;;;;;;;;19.00;99.90;;;;;;5126602;27;19916;-56
2022/07/25 05:02:35;;;;;;;;;;;20.10;99.90;;;;;;5126912;27;19918;-56
2022/07/25 05:05:15;;;;;;;;;;;21.00;99.90;;;;;;5127059;27;19911;-56
2022/07/25 05:07:57;;;;;;;;;;;21.30;99.90;;;;;;5110329;27;19912;-55
2022/07/25 05:10:36;;;;;;;;;;;21.40;99.90;;;;;;5104060;27;19930;-58
2022/07/25 05:13:16;;;;;;;;;;;21.80;99.90;;;;;;5115004;27;19919;-56
2022/07/25 05:15:56;;;;;;;;;;;22.30;99.90;;;;;;5104744;27;19927;-56
2022/07/25 05:18:42;;;;;;;;;;;22.80;99.90;;;;;;5129162;27;19912;-56
2022/07/25 05:21:22;;;;;;;;;;;23.00;99.90;;;;;;5085677;28;19913;-56
2022/07/25 05:24:02;;;;;;;;;;;23.10;99.90;;;;;;5086093;28;19913;-55
2022/07/25 05:26:42;;;;;;;;;;;23.10;99.90;;;;;;5121496;27;19938;-56
2022/07/25 05:29:22;;;;;;;;;;;23.30;99.90;;;;;;5127047;27;19953;-56
2022/07/25 05:32:01;;;;;;;;;;;23.50;99.90;;;;;;5106015;27;19942;-55
2022/07/25 05:34:41;;;;;;;;;;;23.30;99.90;;;;;;5126787;27;20407;-56
2022/07/25 05:37:21;;;;;;;;;;;22.70;99.90;;;;;;5094924;27;19926;-57
2022/07/25 05:40:01;;;;;;;;;;;22.20;99.90;;;;;;5126135;27;19912;-56
2022/07/25 05:42:41;;;;;;;;;;;22.00;99.90;;;;;;5126542;27;19912;-56
2022/07/25 05:45:21;;;;;;;;;;;21.80;99.90;;;;;;5105971;27;20328;-56
2022/07/25 05:48:00;;;;;;;;;;;21.60;99.90;;;;;;5109744;27;19918;-56
2022/07/25 05:50:40;;;;;;;;;;;21.60;99.90;;;;;;5106401;27;20211;-56
2022/07/25 05:53:20;;;;;;;;;;;21.60;99.90;;;;;;5126981;27;19911;-56
2022/07/25 05:56:00;;;;;;;;;;;21.60;99.90;;;;;;5126517;27;19926;-56
2022/07/25 05:58:41;;;;;;;;;;;21.70;99.90;;;;;;5106160;27;20217;-56
2022/07/25 06:01:21;;;;;;;;;;;21.80;99.90;;;;;;5126828;27;20388;-56
2022/07/25 06:04:01;;;;;;;;;;;21.90;99.90;;;;;;5126745;27;20115;-56
2022/07/25 06:06:41;;;;;;;;;;;22.10;99.90;;;;;;5120838;27;19919;-56
2022/07/25 06:09:21;;;;;;;;;;;22.20;99.90;;;;;;5126743;27;19957;-56
2022/07/25 06:12:02;;;;;;;;;;;22.30;99.90;;;;;;5126480;27;19919;-56
2022/07/25 06:14:42;;;;;;;;;;;22.50;99.90;;;;;;5106320;27;19915;-56
2022/07/25 06:17:22;;;;;;;;;;;22.60;99.90;;;;;;5115036;27;19916;-56
2022/07/25 06:20:02;;;;;;;;;;;22.70;99.90;;;;;;5106624;27;20344;-56
2022/07/25 06:22:41;;;;;;;;;;;22.80;99.90;;;;;;5126871;27;20381;-56
2022/07/25 06:25:21;;;;;;;;;;;22.90;99.90;;;;;;5106541;27;19926;-56
2022/07/25 06:28:01;;;;;;;;;;;23.20;99.90;;;;;;5109629;27;19912;-56
2022/07/25 06:30:41;;;;;;;;;;;23.40;99.90;;;;;;5127232;27;19918;-56
2022/07/25 06:33:21;;;;;;;;;;;23.50;99.90;;;;;;5106458;27;19969;-56
2022/07/25 06:36:01;;;;;;;;;;;23.70;99.90;;;;;;5131527;27;20327;-56
2022/07/25 06:38:40;;;;;;;;;;;23.80;99.90;;;;;;5106597;27;20106;-56
2022/07/25 06:41:20;;;;;;;;;;;24.00;99.90;;;;;;5106299;27;19926;-56
2022/07/25 06:44:00;;;;;;;;;;;24.10;99.90;;;;;;5106426;27;19912;-56
2022/07/25 06:46:40;;;;;;;;;;;24.30;99.90;;;;;;5121387;27;19912;-56
2022/07/25 06:49:20;;;;;;;;;;;24.40;99.90;;;;;;5127277;27;19912;-56
2022/07/25 06:52:02;;;;;;;;;;;24.50;99.90;;;;;;5127113;27;19918;-56
2022/07/25 06:54:43;;;;;;;;;;;24.60;99.90;;;;;;5106783;27;20324;-56
2022/07/25 06:57:22;;;;;;;;;;;24.80;99.90;;;;;;5094927;27;19938;-56
2022/07/25 07:00:05;;;;;;;;;;;25.00;99.90;;;;;;5123884;27;19911;-57
2022/07/25 07:02:49;;;;;;;;;;;25.20;99.90;;;;;;5105071;27;19930;-57
2022/07/25 07:05:42;;;;;;;;;;;25.50;99.90;;;;;;5126905;27;20266;-56
2022/07/25 07:08:22;;;;;;;;;;;25.70;99.90;;;;;;5127097;27;20101;-56
2022/07/25 07:11:01;;;;;;;;;;;25.90;96.70;;;;;;5127438;27;19919;-56
2022/07/25 07:13:41;;;;;;;;;;;26.00;92.60;;;;;;5119943;27;19918;-56
2022/07/25 07:16:21;;;;;;;;;;;26.10;92.20;;;;;;5124412;27;19934;-56
2022/07/25 07:19:01;;;;;;;;;;;26.20;90.00;;;;;;5126922;27;20365;-56
2022/07/25 07:21:41;;;;;;;;;;;26.20;85.00;;;;;;5106946;27;19912;-56
2022/07/25 07:24:20;;;;;;;;;;;26.40;80.50;;;;;;5086455;28;19916;-57
2022/07/25 07:27:00;;;;;;;;;;;26.50;78.20;;;;;;5118835;27;19968;-56
2022/07/25 07:29:40;;;;;;;;;;;26.60;75.90;;;;;;5146657;27;19915;-57
2022/07/25 07:32:20;;;;;;;;;;;26.70;76.00;;;;;;5106356;27;19926;-56
2022/07/25 07:35:00;;;;;;;;;;;26.70;71.50;;;;;;5127025;27;20399;-56
2022/07/25 07:37:40;;;;;;;;;;;26.80;71.30;;;;;;5113000;27;19912;-57
2022/07/25 07:40:20;;;;;;;;;;;26.80;70.80;;;;;;5106706;27;19945;-56
2022/07/25 07:43:02;;;;;;;;;;;26.90;69.30;;;;;;5120485;27;20115;-57
2022/07/25 07:45:42;;;;;;;;;;;27.00;67.50;;;;;;5125964;27;19912;-56
2022/07/25 07:48:22;;;;;;;;;;;27.10;65.10;;;;;;5123266;27;19957;-56
2022/07/25 07:51:02;;;;;;;;;;;27.10;65.00;;;;;;5085337;28;20324;-56
2022/07/25 07:56:40;;;;;;;;;;;27.20;61.20;;;;;;5126622;27;19919;-56
2022/07/25 07:59:21;;;;;;;;;;;27.30;60.90;;;;;;5127302;27;19911;-56
2022/07/25 08:02:00;;;;;;;;;;;27.30;59.60;;;;;;5106085;27;19957;-56
2022/07/25 08:04:40;;;;;;;;;;;27.40;58.40;;;;;;5106156;27;19919;-57
2022/07/25 08:07:20;;;;;;;;;;;27.50;57.50;;;;;;5115685;27;19922;-56
2022/07/25 08:10:00;;;;;;;;;;;27.50;57.50;;;;;;5127203;27;19922;-56
2022/07/25 08:12:43;;;;;;;;;;;27.60;57.50;;;;;;5126879;27;19911;-57
2022/07/25 08:15:23;;;;;;;;;;;27.70;56.70;;;;;;5127063;27;19918;-56
2022/07/25 08:18:03;;;;;;;;;;;27.90;55.60;;;;;;5089305;27;19916;-56
2022/07/25 08:20:44;;;;;;;;;;;27.90;54.50;;;;;;5126884;27;19912;-56
2022/07/25 08:23:26;;;;;;;;;;;28.00;55.30;;;;;;5126883;27;19911;-56
2022/07/25 08:26:07;;;;;;;;;;;28.10;54.90;;;;;;5105886;27;19918;-56
2022/07/25 08:28:47;;;;;;;;;;;28.20;54.10;;;;;;5106933;27;19916;-56
2022/07/25 08:31:27;;;;;;;;;;;28.30;53.40;;;;;;5127449;27;19934;-56
2022/07/25 08:34:08;;;;;;;;;;;28.30;52.90;;;;;;5127232;27;19919;-56
2022/07/25 08:36:48;;;;;;;;;;;28.50;52.70;;;;;;5120797;27;19912;-56
2022/07/25 08:39:28;;;;;;;;;;;28.50;51.60;;;;;;5127056;27;19912;-57
2022/07/25 08:42:08;;;;;;;;;;;28.50;50.90;;;;;;5127309;27;20324;-56
2022/07/25 08:44:56;;;;;;;;;;;28.60;51.80;;;;;;5126906;27;19918;-56
2022/07/25 08:47:37;;;;;;;;;;;28.60;51.10;;;;;;5154468;27;19915;-56
2022/07/25 08:50:18;;;;;;;;;;;28.80;50.80;;;;;;5127179;27;19918;-56
2022/07/25 08:52:58;;;;;;;;;;;28.80;48.80;;;;;;5106800;27;19916;-56
2022/07/25 08:55:38;;;;;;;;;;;28.80;49.60;;;;;;5126972;27;19926;-56
2022/07/25 08:58:18;;;;;;;;;;;28.90;48.40;;;;;;5126939;27;19918;-56
2022/07/25 09:00:58;;;;;;;;;;;29.00;47.90;;;;;;5106037;27;20323;-56
2022/07/25 09:03:47;;;;;;;;;;;29.00;48.30;;;;;;5127508;27;19911;-56
2022/07/25 09:06:27;;;;;;;;;;;29.10;47.30;;;;;;5102901;27;19912;-56
2022/07/25 09:09:07;;;;;;;;;;;29.20;45.90;;;;;;5160375;22;19924;-56
2022/07/25 09:11:46;;;;;;;;;;;29.20;44.80;;;;;;5129769;27;19918;-55
2022/07/25 09:14:28;;;;;;;;;;;29.10;45.50;;;;;;5126013;27;19922;-55
2022/07/25 09:17:21;;;;;;;;;;;29.20;44.20;;;;;;5124797;27;20014;-54
2022/07/25 09:20:08;;;;;;;;;;;29.20;45.00;;;;;;5088260;27;20254;-55
2022/07/25 09:22:48;;;;;;;;;;;29.30;43.60;;;;;;5125755;27;19915;-56
2022/07/25 09:25:28;;;;;;;;;;;29.40;44.10;;;;;;5146384;27;20369;-55
2022/07/25 09:28:16;;;;;;;;;;;29.50;42.80;;;;;;5124763;27;19929;-56
2022/07/25 09:30:59;;;;;;;;;;;29.40;43.80;;;;;;5105367;27;19912;-56
2022/07/25 09:33:46;;;;;;;;;;;29.30;43.80;;;;;;5105059;27;19942;-55
2022/07/25 09:36:27;;;;;;;;;;;29.40;44.20;;;;;;5124554;27;19969;-55
2022/07/25 09:39:06;;;;;;;;;;;29.60;44.00;;;;;;5125307;27;20381;-55
2022/07/25 09:41:48;;;;;;;;;;;29.70;42.90;;;;;;5108864;27;19922;-55
2022/07/25 09:44:29;;;;;;;;;;;29.70;42.80;;;;;;5125472;27;19918;-55
2022/07/25 09:47:12;;;;;;;;;;;29.80;43.40;;;;;;5103282;27;19920;-55
2022/07/25 09:49:52;;;;;;;;;;;30.00;42.30;;;;;;5125384;27;19915;-57
2022/07/25 09:52:32;;;;;;;;;;;30.10;41.60;;;;;;5125901;27;19912;-56
2022/07/25 09:55:12;;;;;;;;;;;30.00;42.00;;;;;;5124993;27;19918;-55
2022/07/25 09:57:53;;;;;;;;;;;30.10;42.40;;;;;;5124564;27;19912;-55
2022/07/25 10:00:33;;;;;;;;;;;30.20;40.70;;;;;;5125897;27;19918;-55
2022/07/25 10:03:18;;;;;;;;;;;30.30;40.70;;;;;;5125719;27;19915;-56
2022/07/25 10:06:03;;;;;;;;;;;30.20;41.00;;;;;;5104245;27;19926;-55
2022/07/25 10:08:44;;;;;;;;;;;30.20;41.30;;;;;;5120071;27;19926;-54
2022/07/25 10:11:25;;;;;;;;;;;30.40;41.20;;;;;;5125675;27;19912;-55
2022/07/25 10:14:11;;;;;;;;;;;30.40;39.60;;;;;;5125416;27;19912;-56
2022/07/25 10:16:51;;;;;;;;;;;30.10;40.10;;;;;;5124569;27;20309;-56
2022/07/25 10:19:39;;;;;;;;;;;30.10;40.20;;;;;;5113831;27;19913;-54
2022/07/25 10:22:19;;;;;;;;;;;30.10;40.90;;;;;;5125655;27;19918;-55
2022/07/25 10:25:07;;;;;;;;;;;30.40;40.30;;;;;;5124947;27;19925;-55
2022/07/25 10:27:48;;;;;;;;;;;30.60;40.50;;;;;;5124765;27;19926;-56
2022/07/25 10:30:28;;;;;;;;;;;30.80;37.60;;;;;;5125517;27;20300;-55
2022/07/25 10:33:12;;;;;;;;;;;30.70;38.70;;;;;;5095662;27;19924;-56
2022/07/25 10:35:52;;;;;;;;;;;30.90;39.20;;;;;;5085570;27;19927;-56
2022/07/25 10:38:33;;;;;;;;;;;31.20;36.50;;;;;;5105072;27;20189;-56
2022/07/25 10:41:14;;;;;;;;;;;31.10;35.70;;;;;;5125243;27;19916;-54
2022/07/25 10:43:56;;;;;;;;;;;31.10;35.80;;;;;;5105064;27;19922;-55
2022/07/25 10:46:36;;;;;;;;;;;31.00;36.40;;;;;;5103556;27;19926;-55
2022/07/25 10:49:19;;;;;;;;;;;31.10;37.70;;;;;;5115942;27;19918;-54
2022/07/25 10:52:01;;;;;;;;;;;31.10;38.40;;;;;;5125462;27;19911;-55
2022/07/25 10:54:52;;;;;;;;;;;31.30;36.20;;;;;;5125722;27;19912;-55
2022/07/25 10:57:32;;;;;;;;;;;31.10;36.80;;;;;;5125167;27;19918;-56
2022/07/25 11:00:13;;;;;;;;;;;31.20;37.90;;;;;;5087380;27;19927;-55
2022/07/25 11:02:56;;;;;;;;;;;31.40;35.00;;;;;;5115326;27;19953;-56
2022/07/25 11:05:47;;;;;;;;;;;31.60;35.40;;;;;;5104577;27;19945;-55
2022/07/25 11:08:31;;;;;;;;;;;31.60;35.20;;;;;;5081601;28;19912;-56
2022/07/25 11:11:15;;;;;;;;;;;31.60;35.00;;;;;;5124695;27;19926;-55
2022/07/25 11:13:55;;;;;;;;;;;31.60;35.60;;;;;;5126125;27;19916;-56
2022/07/25 11:16:35;;;;;;;;;;;31.50;36.40;;;;;;5123898;27;19922;-55
2022/07/25 11:19:22;;;;;;;;;;;31.70;34.90;;;;;;5137576;27;19915;-56
2022/07/25 11:22:03;;;;;;;;;;;31.70;35.70;;;;;;5126345;27;19912;-55
2022/07/25 11:24:45;;;;;;;;;;;31.90;35.10;;;;;;5085232;28;19913;-56
2022/07/25 11:27:26;;;;;;;;;;;31.70;33.60;;;;;;5124848;27;20265;-56
2022/07/25 11:30:07;;;;;;;;;;;31.50;34.80;;;;;;5125534;27;20201;-55
2022/07/25 11:32:49;;;;;;;;;;;31.60;34.90;;;;;;5123394;27;20389;-55
2022/07/25 11:35:30;;;;;;;;;;;31.80;33.50;;;;;;5125490;27;19922;-56
2022/07/25 11:38:13;;;;;;;;;;;31.90;34.00;;;;;;5103956;27;19915;-55
2022/07/25 11:40:52;;;;;;;;;;;32.10;33.50;;;;;;5125597;27;19941;-55
2022/07/25 11:43:32;;;;;;;;;;;32.30;33.60;;;;;;5103575;27;20323;-55
2022/07/25 11:46:12;;;;;;;;;;;32.40;33.50;;;;;;5104128;27;20176;-55
2022/07/25 11:48:53;;;;;;;;;;;32.60;33.40;;;;;;5145869;27;19917;-55
2022/07/25 11:51:37;;;;;;;;;;;32.70;33.10;;;;;;5104904;27;19912;-56
2022/07/25 11:54:18;;;;;;;;;;;32.70;30.10;;;;;;5125648;27;19912;-55
2022/07/25 11:56:58;;;;;;;;;;;32.50;31.20;;;;;;5124581;27;19918;-56
2022/07/25 11:59:42;;;;;;;;;;;32.70;32.30;;;;;;5125369;27;19912;-55
2022/07/25 12:02:23;;;;;;;;;;;32.80;32.60;;;;;;5105127;27;20327;-54
2022/07/25 12:05:05;;;;;;;;;;;32.90;32.80;;;;;;5084495;28;19913;-56
2022/07/25 12:07:45;;;;;;;;;;;33.00;32.00;;;;;;5124976;27;20273;-54
2022/07/25 12:10:31;;;;;;;;;;;33.10;31.40;;;;;;5125362;27;19918;-55
2022/07/25 12:13:21;;;;;;;;;;;32.90;32.10;;;;;;5125501;27;19912;-55
2022/07/25 12:16:00;;;;;;;;;;;32.80;32.50;;;;;;5124324;27;19918;-55
2022/07/25 12:18:40;;;;;;;;;;;33.00;32.80;;;;;;5146037;27;19930;-56
2022/07/25 12:21:20;;;;;;;;;;;33.20;32.80;;;;;;5105626;27;20158;-55
2022/07/25 12:24:00;;;;;;;;;;;33.50;32.50;;;;;;5125529;27;20115;-54
2022/07/25 12:26:40;;;;;;;;;;;33.50;30.80;;;;;;5103993;27;20385;-55
2022/07/25 12:29:19;;;;;;;;;;;33.10;30.80;;;;;;5115206;27;19916;-55
2022/07/25 12:31:59;;;;;;;;;;;33.10;32.40;;;;;;5125288;27;19919;-55
2022/07/25 12:34:39;;;;;;;;;;;33.30;30.70;;;;;;5125548;27;19920;-56
2022/07/25 12:37:20;;;;;;;;;;;33.50;31.40;;;;;;5125176;27;19922;-56
2022/07/25 12:40:01;;;;;;;;;;;33.70;31.20;;;;;;5095140;27;19916;-55
2022/07/25 12:42:40;;;;;;;;;;;33.80;30.00;;;;;;5125695;27;19930;-54
2022/07/25 12:45:21;;;;;;;;;;;33.80;30.00;;;;;;5124904;27;19918;-56
2022/07/25 12:48:01;;;;;;;;;;;33.70;30.80;;;;;;5124667;27;19918;-55
2022/07/25 12:50:41;;;;;;;;;;;33.70;31.70;;;;;;5125636;27;20117;-56
2022/07/25 12:53:21;;;;;;;;;;;33.80;31.00;;;;;;5125683;27;19912;-56
2022/07/25 12:56:01;;;;;;;;;;;33.80;30.00;;;;;;5124526;27;19922;-55
2022/07/25 12:58:41;;;;;;;;;;;33.70;30.70;;;;;;5120802;27;20308;-55
2022/07/25 13:01:21;;;;;;;;;;;33.60;32.60;;;;;;5102282;27;19916;-56
2022/07/25 13:04:00;;;;;;;;;;;33.70;31.90;;;;;;5124885;27;19922;-56
2022/07/25 13:06:40;;;;;;;;;;;33.70;32.10;;;;;;5124765;27;19938;-55
2022/07/25 13:09:20;;;;;;;;;;;33.90;30.00;;;;;;5125553;27;19912;-55
2022/07/25 13:12:00;;;;;;;;;;;33.90;30.00;;;;;;5104618;27;19912;-56
2022/07/25 13:14:40;;;;;;;;;;;33.70;30.20;;;;;;5125761;27;19934;-55
2022/07/25 13:17:20;;;;;;;;;;;33.70;31.50;;;;;;5124747;27;19912;-55
2022/07/25 13:20:00;;;;;;;;;;;34.00;32.20;;;;;;5125440;27;19918;-55
2022/07/25 13:22:40;;;;;;;;;;;34.30;31.40;;;;;;5105425;27;19916;-55
2022/07/25 13:25:21;;;;;;;;;;;34.40;30.90;;;;;;5125476;27;20303;-55
2022/07/25 13:28:02;;;;;;;;;;;34.40;31.70;;;;;;5104497;27;19926;-57
2022/07/25 13:30:42;;;;;;;;;;;34.50;31.30;;;;;;5125371;27;19916;-57
2022/07/25 13:33:22;;;;;;;;;;;34.50;31.00;;;;;;5125607;27;19912;-55
2022/07/25 13:36:02;;;;;;;;;;;34.40;31.80;;;;;;5124488;27;19911;-55
2022/07/25 13:38:42;;;;;;;;;;;34.50;31.00;;;;;;5121075;27;19912;-54
2022/07/25 13:41:21;;;;;;;;;;;34.60;30.00;;;;;;5125702;27;19929;-56
2022/07/25 13:44:01;;;;;;;;;;;34.70;30.00;;;;;;5118022;27;19916;-56
2022/07/25 13:46:41;;;;;;;;;;;34.90;29.90;;;;;;5120967;27;19937;-55
2022/07/25 13:49:21;;;;;;;;;;;35.20;30.10;;;;;;5108294;27;19916;-56
2022/07/25 13:52:01;;;;;;;;;;;35.40;29.80;;;;;;5117710;27;19922;-55
2022/07/25 13:54:40;;;;;;;;;;;35.50;27.90;;;;;;5110760;27;19916;-55
2022/07/25 13:57:20;;;;;;;;;;;35.20;28.70;;;;;;5100788;27;19926;-56
2022/07/25 14:00:12;;;;;;;;;;;35.20;27.80;;;;;;5123257;27;19920;-56
2022/07/25 14:02:53;;;;;;;;;;;35.30;28.30;;;;;;5132143;27;19917;-55
2022/07/25 14:05:33;;;;;;;;;;;35.40;28.90;;;;;;5124203;27;19911;-55
2022/07/25 14:08:13;;;;;;;;;;;35.40;28.40;;;;;;5123737;27;19912;-56
2022/07/25 14:10:53;;;;;;;;;;;35.50;28.40;;;;;;5124548;27;19939;-57
2022/07/25 14:13:33;;;;;;;;;;;35.70;27.50;;;;;;5124740;27;19912;-54
2022/07/25 14:16:15;;;;;;;;;;;35.80;28.00;;;;;;5123677;27;20464;-55
2022/07/25 14:18:55;;;;;;;;;;;35.80;27.40;;;;;;5120880;27;19957;-55
2022/07/25 14:21:35;;;;;;;;;;;35.50;27.20;;;;;;5124246;27;19922;-53
2022/07/25 14:24:15;;;;;;;;;;;35.20;28.10;;;;;;5103034;27;19926;-55
2022/07/25 14:26:55;;;;;;;;;;;35.20;28.50;;;;;;5103780;27;19924;-55
2022/07/25 14:29:36;;;;;;;;;;;35.60;27.90;;;;;;5113559;27;19912;-55
2022/07/25 14:32:16;;;;;;;;;;;35.90;27.80;;;;;;5146280;27;19918;-54
2022/07/25 14:34:56;;;;;;;;;;;36.30;27.60;;;;;;5124215;27;19933;-55
2022/07/25 14:37:36;;;;;;;;;;;36.20;27.90;;;;;;5121035;27;19934;-57
2022/07/25 14:40:16;;;;;;;;;;;36.00;26.70;;;;;;5099172;27;19926;-57
2022/07/25 14:42:56;;;;;;;;;;;35.70;27.60;;;;;;5105619;27;19913;-55
2022/07/25 14:45:36;;;;;;;;;;;35.60;27.10;;;;;;5120026;27;20611;-55
2022/07/25 14:48:17;;;;;;;;;;;35.40;28.00;;;;;;5122488;27;19922;-55
2022/07/25 14:50:57;;;;;;;;;;;35.40;27.20;;;;;;5103842;27;19926;-56
2022/07/25 14:53:38;;;;;;;;;;;35.90;27.90;;;;;;5102678;27;19912;-54
2022/07/25 14:56:18;;;;;;;;;;;36.70;26.30;;;;;;5084843;27;19920;-56
2022/07/25 14:58:58;;;;;;;;;;;37.20;26.00;;;;;;5123394;27;19919;-54
2022/07/25 15:01:38;;;;;;;;;;;37.40;25.40;;;;;;5105561;27;20315;-56
2022/07/25 15:04:20;;;;;;;;;;;37.40;25.10;;;;;;5124881;27;19916;-55
2022/07/25 15:07:00;;;;;;;;;;;37.70;25.70;;;;;;5101124;27;20437;-55
2022/07/25 15:09:40;;;;;;;;;;;37.70;25.60;;;;;;5109763;27;20849;-55
2022/07/25 15:12:20;;;;;;;;;;;37.70;25.00;;;;;;5113248;22;19931;-58
2022/07/25 15:15:00;;;;;;;;;;;37.80;24.40;;;;;;5101742;27;20323;-57
2022/07/25 15:17:40;;;;;;;;;;;37.70;24.50;;;;;;5121773;27;20353;-59
2022/07/25 15:20:19;;;;;;;;;;;37.10;23.90;;;;;;5124379;27;19918;-57
2022/07/25 15:22:59;;;;;;;;;;;36.60;25.10;;;;;;5110703;27;19919;-56
2022/07/25 15:25:39;;;;;;;;;;;36.60;26.00;;;;;;5123760;27;19912;-56
2022/07/25 15:28:19;;;;;;;;;;;36.70;25.30;;;;;;5104237;27;19912;-57
2022/07/25 15:30:59;;;;;;;;;;;36.80;24.90;;;;;;5103986;27;19922;-56
2022/07/25 15:33:40;;;;;;;;;;;36.80;24.30;;;;;;5122733;27;19919;-56
2022/07/25 15:36:20;;;;;;;;;;;36.60;25.20;;;;;;5120287;27;19935;-56